SWA6132 KTYS-KMDW
Flight info
| Callsign | SWA6132 |
|---|---|
| Flight time | 1h 12m |
| Altitude | 34000 |
| Route | VXV IIU DROSE FISSK6 |
| Aircraft | B737/M-SDE2E3GIJ4RWZ/LB1D1 |
Departure
| Time | 2026-05-01 10:50 |
|---|---|
| Airport | McGhee Tyson Airport (KTYS) |
Arrival
| Time | 2026-05-01 12:02 |
|---|---|
| Airport | Chicago Midway International Airport (KMDW) |
| Time | Latitude | Longitude | Altitude | Speed | Heading |
|---|---|---|---|---|---|
| 2026-05-01 10:38 | 35.80759 | -83.99051 | 961 ft | 0 kts | 179° |
| 2026-05-01 10:43 | 35.80770 | -83.99051 | 958 ft | 2 kts | 179° |
| 2026-05-01 10:43 | 35.80786 | -83.99051 | 959 ft | 2 kts | 179° |
| 2026-05-01 10:43 | 35.80796 | -83.99051 | 958 ft | 0 kts | 179° |
| 2026-05-01 10:44 | 35.80795 | -83.99051 | 958 ft | 0 kts | 178° |
| 2026-05-01 10:44 | 35.80792 | -83.99032 | 959 ft | 4 kts | 55° |
| 2026-05-01 10:44 | 35.80833 | -83.99031 | 960 ft | 10 kts | 358° |
| 2026-05-01 10:45 | 35.80939 | -83.99037 | 962 ft | 18 kts | 356° |
| 2026-05-01 10:45 | 35.81046 | -83.98967 | 963 ft | 18 kts | 44° |
| 2026-05-01 10:45 | 35.81134 | -83.98862 | 963 ft | 17 kts | 44° |
| 2026-05-01 10:45 | 35.81218 | -83.98763 | 964 ft | 17 kts | 44° |
| 2026-05-01 10:46 | 35.81308 | -83.98655 | 965 ft | 21 kts | 44° |
| 2026-05-01 10:46 | 35.81424 | -83.98514 | 966 ft | 26 kts | 45° |
| 2026-05-01 10:46 | 35.81563 | -83.98344 | 968 ft | 29 kts | 45° |
| 2026-05-01 10:46 | 35.81714 | -83.98246 | 975 ft | 13 kts | 333° |
| 2026-05-01 10:47 | 35.81714 | -83.98310 | 974 ft | 2 kts | 235° |
| 2026-05-01 10:47 | 35.81698 | -83.98338 | 974 ft | 4 kts | 232° |
| 2026-05-01 10:47 | 35.81645 | -83.98358 | 972 ft | 23 kts | 161° |
| 2026-05-01 10:47 | 35.81526 | -83.98379 | 968 ft | 18 kts | 219° |
| 2026-05-01 10:48 | 35.81410 | -83.98519 | 966 ft | 31 kts | 226° |
| 2026-05-01 10:48 | 35.81223 | -83.98746 | 966 ft | 45 kts | 224° |
| 2026-05-01 10:48 | 35.80974 | -83.99050 | 963 ft | 56 kts | 225° |
| 2026-05-01 10:48 | 35.80688 | -83.99403 | 954 ft | 41 kts | 225° |
| 2026-05-01 10:49 | 35.80553 | -83.99604 | 956 ft | 20 kts | 273° |
| 2026-05-01 10:49 | 35.80656 | -83.99619 | 954 ft | 21 kts | 44° |
| 2026-05-01 10:49 | 35.80992 | -83.99215 | 962 ft | 115 kts | 44° |
| 2026-05-01 10:49 | 35.81756 | -83.98280 | 1090 ft | 186 kts | 45° |
| 2026-05-01 10:50 | 35.82761 | -83.97042 | 1770 ft | 224 kts | 43° |
| 2026-05-01 10:50 | 35.84020 | -83.95745 | 2276 ft | 242 kts | 36° |
| 2026-05-01 10:50 | 35.85347 | -83.94459 | 2707 ft | 243 kts | 37° |
| 2026-05-01 10:50 | 35.86681 | -83.93160 | 3193 ft | 247 kts | 37° |
| 2026-05-01 10:51 | 35.88071 | -83.91869 | 3698 ft | 253 kts | 30° |
| 2026-05-01 10:51 | 35.89777 | -83.91330 | 4033 ft | 259 kts | 355° |
| 2026-05-01 10:51 | 35.91478 | -83.91992 | 4481 ft | 256 kts | 337° |
| 2026-05-01 10:51 | 35.93143 | -83.92888 | 5170 ft | 266 kts | 336° |
| 2026-05-01 10:52 | 35.94829 | -83.93831 | 5801 ft | 265 kts | 334° |
| 2026-05-01 10:52 | 35.96505 | -83.94827 | 6380 ft | 269 kts | 332° |
| 2026-05-01 10:52 | 35.98153 | -83.95856 | 6885 ft | 270 kts | 330° |
| 2026-05-01 10:52 | 35.99820 | -83.96938 | 7401 ft | 271 kts | 329° |
| 2026-05-01 10:53 | 36.01478 | -83.98047 | 7914 ft | 271 kts | 328° |
| 2026-05-01 10:53 | 36.03124 | -83.99177 | 8441 ft | 271 kts | 328° |
| 2026-05-01 10:53 | 36.04770 | -84.00324 | 8975 ft | 272 kts | 327° |
| 2026-05-01 10:53 | 36.06417 | -84.01484 | 9522 ft | 272 kts | 326° |
| 2026-05-01 10:54 | 36.08063 | -84.02662 | 10060 ft | 273 kts | 326° |
| 2026-05-01 10:54 | 36.09713 | -84.03861 | 10573 ft | 281 kts | 324° |
| 2026-05-01 10:54 | 36.11433 | -84.05126 | 11095 ft | 293 kts | 324° |
| 2026-05-01 10:54 | 36.13222 | -84.06428 | 11637 ft | 303 kts | 325° |
| 2026-05-01 10:55 | 36.15074 | -84.07774 | 12151 ft | 314 kts | 324° |
| 2026-05-01 10:55 | 36.16948 | -84.09179 | 12654 ft | 324 kts | 324° |
| 2026-05-01 10:55 | 36.18885 | -84.10639 | 13147 ft | 326 kts | 324° |
| 2026-05-01 10:55 | 36.20835 | -84.12096 | 13645 ft | 330 kts | 324° |
| 2026-05-01 10:56 | 36.22813 | -84.13560 | 14082 ft | 332 kts | 324° |
| 2026-05-01 10:56 | 36.24802 | -84.15026 | 14449 ft | 334 kts | 324° |
| 2026-05-01 10:56 | 36.26803 | -84.16497 | 14816 ft | 335 kts | 323° |
| 2026-05-01 10:56 | 36.28802 | -84.18002 | 15177 ft | 337 kts | 323° |
| 2026-05-01 10:57 | 36.30813 | -84.19507 | 15527 ft | 338 kts | 323° |
| 2026-05-01 10:57 | 36.32834 | -84.21003 | 15876 ft | 340 kts | 323° |
| 2026-05-01 10:57 | 36.34875 | -84.22514 | 16227 ft | 341 kts | 322° |
| 2026-05-01 10:57 | 36.36901 | -84.24054 | 16567 ft | 341 kts | 322° |
| 2026-05-01 10:58 | 36.38929 | -84.25598 | 16908 ft | 343 kts | 322° |
| 2026-05-01 10:58 | 36.40973 | -84.27147 | 17244 ft | 345 kts | 322° |
| 2026-05-01 10:58 | 36.43024 | -84.28693 | 17576 ft | 345 kts | 322° |
| 2026-05-01 10:58 | 36.45056 | -84.30218 | 17909 ft | 347 kts | 322° |
| 2026-05-01 10:59 | 36.47133 | -84.31769 | 18236 ft | 349 kts | 322° |
| 2026-05-01 10:59 | 36.49218 | -84.33317 | 18543 ft | 350 kts | 322° |
| 2026-05-01 10:59 | 36.51307 | -84.34884 | 18854 ft | 350 kts | 321° |
| 2026-05-01 10:59 | 36.53379 | -84.36475 | 19169 ft | 351 kts | 321° |
| 2026-05-01 11:00 | 36.55461 | -84.38058 | 19488 ft | 351 kts | 321° |
| 2026-05-01 11:00 | 36.57555 | -84.39638 | 19799 ft | 352 kts | 321° |
| 2026-05-01 11:00 | 36.59657 | -84.41212 | 20110 ft | 354 kts | 321° |
| 2026-05-01 11:00 | 36.61767 | -84.42784 | 20423 ft | 353 kts | 321° |
| 2026-05-01 11:01 | 36.63865 | -84.44385 | 20721 ft | 354 kts | 320° |
| 2026-05-01 11:01 | 36.65966 | -84.45995 | 21026 ft | 355 kts | 320° |
| 2026-05-01 11:01 | 36.68075 | -84.47600 | 21324 ft | 356 kts | 320° |
| 2026-05-01 11:01 | 36.70192 | -84.49201 | 21625 ft | 356 kts | 320° |
| 2026-05-01 11:02 | 36.72320 | -84.50798 | 21918 ft | 358 kts | 320° |
| 2026-05-01 11:02 | 36.74457 | -84.52398 | 22210 ft | 359 kts | 320° |
| 2026-05-01 11:02 | 36.76580 | -84.54036 | 22511 ft | 359 kts | 319° |
| 2026-05-01 11:02 | 36.78703 | -84.55689 | 22795 ft | 359 kts | 319° |
| 2026-05-01 11:03 | 36.80830 | -84.57342 | 23076 ft | 361 kts | 319° |
| 2026-05-01 11:03 | 36.82968 | -84.59002 | 23354 ft | 363 kts | 319° |
| 2026-05-01 11:03 | 36.85109 | -84.60663 | 23634 ft | 363 kts | 319° |
| 2026-05-01 11:03 | 36.87265 | -84.62326 | 23859 ft | 365 kts | 319° |
| 2026-05-01 11:04 | 36.89428 | -84.63990 | 24133 ft | 365 kts | 319° |
| 2026-05-01 11:04 | 36.91594 | -84.65664 | 24401 ft | 367 kts | 319° |
| 2026-05-01 11:04 | 36.93743 | -84.67322 | 24666 ft | 369 kts | 320° |
| 2026-05-01 11:04 | 36.95951 | -84.68978 | 24950 ft | 372 kts | 320° |
| 2026-05-01 11:05 | 36.98185 | -84.70630 | 25203 ft | 373 kts | 320° |
| 2026-05-01 11:05 | 37.00425 | -84.72288 | 25471 ft | 375 kts | 320° |
| 2026-05-01 11:05 | 37.02666 | -84.73978 | 25742 ft | 375 kts | 319° |
| 2026-05-01 11:05 | 37.04891 | -84.75710 | 26012 ft | 377 kts | 319° |
| 2026-05-01 11:06 | 37.07117 | -84.77448 | 26280 ft | 378 kts | 319° |
| 2026-05-01 11:06 | 37.09362 | -84.79199 | 26541 ft | 380 kts | 319° |
| 2026-05-01 11:06 | 37.11609 | -84.80947 | 26802 ft | 382 kts | 320° |
| 2026-05-01 11:07 | 37.16160 | -84.84375 | 27320 ft | 385 kts | 320° |
| 2026-05-01 11:07 | 37.18463 | -84.86104 | 27592 ft | 386 kts | 320° |
| 2026-05-01 11:07 | 37.20775 | -84.87844 | 27843 ft | 388 kts | 320° |
| 2026-05-01 11:07 | 37.23084 | -84.89615 | 28101 ft | 388 kts | 319° |
| 2026-05-01 11:08 | 37.25375 | -84.91416 | 28351 ft | 389 kts | 319° |
| 2026-05-01 11:08 | 37.27670 | -84.93223 | 28611 ft | 390 kts | 319° |
| 2026-05-01 11:08 | 37.32301 | -84.96857 | 29105 ft | 394 kts | 319° |
| 2026-05-01 11:09 | 37.34634 | -84.98674 | 29366 ft | 395 kts | 319° |
| 2026-05-01 11:09 | 37.36975 | -85.00491 | 29617 ft | 396 kts | 319° |
| 2026-05-01 11:09 | 37.39321 | -85.02318 | 29865 ft | 397 kts | 319° |
| 2026-05-01 11:10 | 37.44016 | -85.05960 | 30345 ft | 400 kts | 319° |
| 2026-05-01 11:10 | 37.46386 | -85.07788 | 30563 ft | 401 kts | 319° |
| 2026-05-01 11:10 | 37.48767 | -85.09628 | 30783 ft | 402 kts | 319° |
| 2026-05-01 11:10 | 37.51152 | -85.11475 | 31022 ft | 403 kts | 319° |
| 2026-05-01 11:11 | 37.53545 | -85.13324 | 31253 ft | 404 kts | 319° |
| 2026-05-01 11:11 | 37.55955 | -85.15181 | 31488 ft | 406 kts | 320° |
| 2026-05-01 11:11 | 37.58365 | -85.17040 | 31710 ft | 407 kts | 319° |
| 2026-05-01 11:11 | 37.59970 | -85.18282 | 31874 ft | 407 kts | 319° |
| 2026-05-01 11:12 | 37.62393 | -85.20154 | 32101 ft | 408 kts | 319° |
| 2026-05-01 11:12 | 37.64817 | -85.22023 | 32326 ft | 409 kts | 320° |
| 2026-05-01 11:12 | 37.67252 | -85.23895 | 32548 ft | 411 kts | 320° |
| 2026-05-01 11:12 | 37.69698 | -85.25780 | 32774 ft | 412 kts | 319° |
| 2026-05-01 11:13 | 37.72129 | -85.27689 | 32993 ft | 411 kts | 319° |
| 2026-05-01 11:13 | 37.74551 | -85.29627 | 33216 ft | 412 kts | 319° |
| 2026-05-01 11:13 | 37.76943 | -85.31546 | 33435 ft | 413 kts | 319° |
| 2026-05-01 11:13 | 37.79372 | -85.33491 | 33655 ft | 413 kts | 319° |
| 2026-05-01 11:14 | 37.81802 | -85.35430 | 33873 ft | 413 kts | 319° |
| 2026-05-01 11:14 | 37.84236 | -85.37367 | 34005 ft | 414 kts | 319° |
| 2026-05-01 11:14 | 37.89167 | -85.41275 | 34021 ft | 421 kts | 319° |
| 2026-05-01 11:15 | 37.94186 | -85.45105 | 34020 ft | 420 kts | 320° |
| 2026-05-01 11:15 | 37.99143 | -85.48990 | 34022 ft | 419 kts | 319° |
| 2026-05-01 11:16 | 38.04090 | -85.52907 | 34017 ft | 419 kts | 319° |
| 2026-05-01 11:16 | 38.09039 | -85.56821 | 34014 ft | 419 kts | 319° |
| 2026-05-01 11:17 | 38.11613 | -85.58613 | 33987 ft | 431 kts | 329° |
| 2026-05-01 11:17 | 38.14612 | -85.59498 | 33995 ft | 452 kts | 341° |
| 2026-05-01 11:17 | 38.20921 | -85.60234 | 34009 ft | 457 kts | 343° |
| 2026-05-01 11:18 | 38.27183 | -85.61113 | 34005 ft | 453 kts | 341° |
| 2026-05-01 11:18 | 38.33417 | -85.62189 | 33988 ft | 451 kts | 340° |
| 2026-05-01 11:19 | 38.39629 | -85.63385 | 33985 ft | 450 kts | 340° |
| 2026-05-01 11:19 | 38.45829 | -85.64608 | 33986 ft | 451 kts | 340° |
| 2026-05-01 11:20 | 38.52040 | -85.65824 | 33993 ft | 451 kts | 340° |
| 2026-05-01 11:20 | 38.58246 | -85.67043 | 33999 ft | 451 kts | 340° |
| 2026-05-01 11:21 | 38.64444 | -85.68255 | 33997 ft | 450 kts | 340° |
| 2026-05-01 11:21 | 38.70604 | -85.69464 | 33994 ft | 450 kts | 340° |
| 2026-05-01 11:22 | 38.76801 | -85.70678 | 33991 ft | 450 kts | 340° |
| 2026-05-01 11:22 | 38.82982 | -85.71899 | 33993 ft | 448 kts | 340° |
| 2026-05-01 11:23 | 38.89148 | -85.73107 | 33990 ft | 448 kts | 340° |
| 2026-05-01 11:23 | 38.95320 | -85.74324 | 33987 ft | 448 kts | 340° |
| 2026-05-01 11:24 | 39.01476 | -85.75545 | 33984 ft | 447 kts | 340° |
| 2026-05-01 11:25 | 39.10650 | -85.77378 | 33984 ft | 445 kts | 340° |
| 2026-05-01 11:25 | 39.19862 | -85.79152 | 33982 ft | 447 kts | 341° |
| 2026-05-01 11:26 | 39.29098 | -85.80893 | 33985 ft | 446 kts | 340° |
| 2026-05-01 11:27 | 39.35235 | -85.82116 | 33985 ft | 446 kts | 340° |
| 2026-05-01 11:27 | 39.41369 | -85.83323 | 33982 ft | 446 kts | 340° |
| 2026-05-01 11:28 | 39.47502 | -85.84531 | 33956 ft | 446 kts | 340° |
| 2026-05-01 11:28 | 39.53605 | -85.85720 | 34004 ft | 448 kts | 340° |
| 2026-05-01 11:29 | 39.62857 | -85.87528 | 34009 ft | 447 kts | 340° |
| 2026-05-01 11:29 | 39.68985 | -85.88728 | 33088 ft | 449 kts | 340° |
| 2026-05-01 11:30 | 39.72050 | -85.89332 | 32635 ft | 442 kts | 340° |
| 2026-05-01 11:30 | 39.75080 | -85.89932 | 32206 ft | 439 kts | 340° |
| 2026-05-01 11:30 | 39.78086 | -85.90538 | 31768 ft | 437 kts | 340° |
| 2026-05-01 11:30 | 39.81072 | -85.91157 | 31351 ft | 434 kts | 340° |
| 2026-05-01 11:31 | 39.84052 | -85.91784 | 30933 ft | 430 kts | 340° |
| 2026-05-01 11:31 | 39.86994 | -85.92414 | 30523 ft | 428 kts | 340° |
| 2026-05-01 11:31 | 39.89929 | -85.93051 | 30126 ft | 426 kts | 340° |
| 2026-05-01 11:31 | 39.92850 | -85.93652 | 29678 ft | 425 kts | 341° |
| 2026-05-01 11:32 | 39.95763 | -85.94250 | 29202 ft | 422 kts | 341° |
| 2026-05-01 11:32 | 39.98645 | -85.94850 | 28735 ft | 419 kts | 341° |
| 2026-05-01 11:32 | 40.01512 | -85.95454 | 28281 ft | 416 kts | 341° |
| 2026-05-01 11:32 | 40.04327 | -85.96028 | 27837 ft | 414 kts | 342° |
| 2026-05-01 11:33 | 40.07173 | -85.96573 | 27392 ft | 412 kts | 342° |
| 2026-05-01 11:33 | 40.10006 | -85.97118 | 26956 ft | 409 kts | 342° |
| 2026-05-01 11:33 | 40.12819 | -85.97667 | 26516 ft | 407 kts | 342° |
| 2026-05-01 11:33 | 40.15611 | -85.98219 | 26098 ft | 404 kts | 342° |
| 2026-05-01 11:34 | 40.18386 | -85.98773 | 25679 ft | 402 kts | 342° |
| 2026-05-01 11:34 | 40.21142 | -85.99329 | 25262 ft | 400 kts | 342° |
| 2026-05-01 11:34 | 40.23885 | -85.99884 | 24955 ft | 398 kts | 342° |
| 2026-05-01 11:34 | 40.26610 | -86.00443 | 24576 ft | 395 kts | 342° |
| 2026-05-01 11:35 | 40.29317 | -86.01004 | 24198 ft | 393 kts | 342° |
| 2026-05-01 11:35 | 40.32009 | -86.01570 | 23826 ft | 391 kts | 342° |
| 2026-05-01 11:35 | 40.34693 | -86.02143 | 23395 ft | 389 kts | 342° |
| 2026-05-01 11:35 | 40.37362 | -86.02716 | 22947 ft | 387 kts | 342° |
| 2026-05-01 11:36 | 40.40006 | -86.03242 | 22290 ft | 378 kts | 343° |
| 2026-05-01 11:36 | 40.42570 | -86.03735 | 21533 ft | 368 kts | 343° |
| 2026-05-01 11:36 | 40.45081 | -86.04228 | 20738 ft | 361 kts | 343° |
| 2026-05-01 11:36 | 40.47485 | -86.04710 | 20301 ft | 347 kts | 343° |
| 2026-05-01 11:37 | 40.49867 | -86.05196 | 19890 ft | 350 kts | 343° |
| 2026-05-01 11:37 | 40.52294 | -86.05742 | 19599 ft | 351 kts | 338° |
| 2026-05-01 11:37 | 40.54504 | -86.06932 | 19439 ft | 341 kts | 325° |
| 2026-05-01 11:37 | 40.56579 | -86.08423 | 19356 ft | 340 kts | 324° |
| 2026-05-01 11:38 | 40.58663 | -86.09920 | 19263 ft | 341 kts | 325° |
| 2026-05-01 11:38 | 40.60740 | -86.11416 | 19139 ft | 340 kts | 325° |
| 2026-05-01 11:38 | 40.62812 | -86.12915 | 19026 ft | 340 kts | 325° |
| 2026-05-01 11:38 | 40.64881 | -86.14415 | 18910 ft | 339 kts | 325° |
| 2026-05-01 11:39 | 40.66946 | -86.15920 | 18790 ft | 339 kts | 325° |
| 2026-05-01 11:39 | 40.69007 | -86.17426 | 18670 ft | 338 kts | 325° |
| 2026-05-01 11:39 | 40.71058 | -86.18930 | 18558 ft | 337 kts | 325° |
| 2026-05-01 11:39 | 40.73111 | -86.20437 | 18442 ft | 337 kts | 325° |
| 2026-05-01 11:40 | 40.75159 | -86.21942 | 18323 ft | 337 kts | 326° |
| 2026-05-01 11:40 | 40.77226 | -86.23412 | 18240 ft | 337 kts | 326° |
| 2026-05-01 11:40 | 40.79260 | -86.24854 | 18109 ft | 336 kts | 326° |
| 2026-05-01 11:40 | 40.81314 | -86.26318 | 17974 ft | 336 kts | 326° |
| 2026-05-01 11:41 | 40.83365 | -86.27784 | 17839 ft | 335 kts | 326° |
| 2026-05-01 11:41 | 40.85413 | -86.29250 | 17703 ft | 334 kts | 326° |
| 2026-05-01 11:41 | 40.87475 | -86.30722 | 17618 ft | 342 kts | 326° |
| 2026-05-01 11:41 | 40.89576 | -86.32198 | 17485 ft | 340 kts | 326° |
| 2026-05-01 11:42 | 40.91658 | -86.33662 | 17354 ft | 338 kts | 326° |
| 2026-05-01 11:42 | 40.93733 | -86.35133 | 17216 ft | 338 kts | 326° |
| 2026-05-01 11:42 | 40.95805 | -86.36610 | 17085 ft | 337 kts | 326° |
| 2026-05-01 11:42 | 40.97872 | -86.38085 | 16951 ft | 337 kts | 326° |
| 2026-05-01 11:43 | 40.99926 | -86.39566 | 16812 ft | 336 kts | 326° |
| 2026-05-01 11:43 | 41.01958 | -86.41088 | 16689 ft | 334 kts | 325° |
| 2026-05-01 11:43 | 41.03928 | -86.42695 | 16530 ft | 330 kts | 316° |
| 2026-05-01 11:44 | 41.06458 | -86.47558 | 16225 ft | 319 kts | 297° |
| 2026-05-01 11:44 | 41.07560 | -86.50118 | 16143 ft | 321 kts | 297° |
| 2026-05-01 11:44 | 41.08657 | -86.52682 | 16035 ft | 319 kts | 296° |
| 2026-05-01 11:44 | 41.09727 | -86.55285 | 15621 ft | 322 kts | 296° |
| 2026-05-01 11:45 | 41.10787 | -86.57876 | 15181 ft | 317 kts | 297° |
| 2026-05-01 11:45 | 41.11847 | -86.60385 | 14747 ft | 315 kts | 297° |
| 2026-05-01 11:45 | 41.13092 | -86.62769 | 14278 ft | 318 kts | 312° |
| 2026-05-01 11:45 | 41.14758 | -86.64718 | 13866 ft | 317 kts | 316° |
| 2026-05-01 11:46 | 41.16433 | -86.66616 | 13242 ft | 317 kts | 316° |
| 2026-05-01 11:46 | 41.18111 | -86.68514 | 12614 ft | 316 kts | 317° |
| 2026-05-01 11:46 | 41.19791 | -86.70387 | 11983 ft | 314 kts | 317° |
| 2026-05-01 11:46 | 41.21449 | -86.72253 | 11356 ft | 311 kts | 317° |
| 2026-05-01 11:47 | 41.23063 | -86.74090 | 11090 ft | 297 kts | 317° |
| 2026-05-01 11:47 | 41.24599 | -86.75848 | 11082 ft | 289 kts | 317° |
| 2026-05-01 11:47 | 41.26154 | -86.77635 | 11091 ft | 303 kts | 317° |
| 2026-05-01 11:47 | 41.27759 | -86.79490 | 10876 ft | 304 kts | 317° |
| 2026-05-01 11:48 | 41.29293 | -86.81264 | 10556 ft | 288 kts | 317° |
| 2026-05-01 11:48 | 41.30763 | -86.82970 | 10228 ft | 273 kts | 317° |
| 2026-05-01 11:48 | 41.32174 | -86.84585 | 9910 ft | 261 kts | 318° |
| 2026-05-01 11:48 | 41.33533 | -86.86118 | 9569 ft | 251 kts | 318° |
| 2026-05-01 11:49 | 41.34844 | -86.87614 | 9219 ft | 244 kts | 318° |
| 2026-05-01 11:49 | 41.36104 | -86.89063 | 9063 ft | 235 kts | 318° |
| 2026-05-01 11:49 | 41.37325 | -86.90468 | 9022 ft | 232 kts | 318° |
| 2026-05-01 11:49 | 41.38577 | -86.91884 | 9018 ft | 241 kts | 319° |
| 2026-05-01 11:50 | 41.39876 | -86.93329 | 9006 ft | 243 kts | 319° |
| 2026-05-01 11:50 | 41.41142 | -86.94816 | 9003 ft | 242 kts | 317° |
| 2026-05-01 11:50 | 41.42371 | -86.96305 | 8992 ft | 242 kts | 317° |
| 2026-05-01 11:50 | 41.43619 | -86.97814 | 9003 ft | 242 kts | 317° |
| 2026-05-01 11:51 | 41.44858 | -86.99351 | 8941 ft | 245 kts | 316° |
| 2026-05-01 11:51 | 41.45967 | -87.01100 | 8568 ft | 252 kts | 300° |
| 2026-05-01 11:51 | 41.46759 | -87.03171 | 8219 ft | 247 kts | 298° |
| 2026-05-01 11:51 | 41.47529 | -87.05178 | 7925 ft | 240 kts | 298° |
| 2026-05-01 11:52 | 41.48285 | -87.07150 | 7630 ft | 239 kts | 298° |
| 2026-05-01 11:52 | 41.49039 | -87.09127 | 7330 ft | 240 kts | 298° |
| 2026-05-01 11:52 | 41.49795 | -87.11117 | 7027 ft | 241 kts | 298° |
| 2026-05-01 11:52 | 41.50550 | -87.13121 | 6729 ft | 241 kts | 298° |
| 2026-05-01 11:53 | 41.51300 | -87.15113 | 6426 ft | 239 kts | 298° |
| 2026-05-01 11:53 | 41.51998 | -87.17125 | 6097 ft | 239 kts | 294° |
| 2026-05-01 11:53 | 41.52582 | -87.19165 | 5992 ft | 231 kts | 293° |
| 2026-05-01 11:53 | 41.53153 | -87.21149 | 6019 ft | 229 kts | 294° |
| 2026-05-01 11:54 | 41.53734 | -87.23156 | 6031 ft | 239 kts | 294° |
| 2026-05-01 11:54 | 41.54334 | -87.25227 | 6005 ft | 238 kts | 294° |
| 2026-05-01 11:54 | 41.54930 | -87.27283 | 6005 ft | 237 kts | 294° |
| 2026-05-01 11:54 | 41.55526 | -87.29338 | 6014 ft | 238 kts | 294° |
| 2026-05-01 11:55 | 41.56126 | -87.31403 | 6015 ft | 238 kts | 294° |
| 2026-05-01 11:55 | 41.56724 | -87.33464 | 6014 ft | 237 kts | 294° |
| 2026-05-01 11:55 | 41.57334 | -87.35509 | 6014 ft | 238 kts | 295° |
| 2026-05-01 11:55 | 41.57970 | -87.37573 | 5803 ft | 244 kts | 295° |
| 2026-05-01 11:56 | 41.58602 | -87.39681 | 5469 ft | 244 kts | 294° |
| 2026-05-01 11:56 | 41.59196 | -87.41745 | 5169 ft | 233 kts | 294° |
| 2026-05-01 11:56 | 41.59765 | -87.43744 | 4865 ft | 228 kts | 294° |
| 2026-05-01 11:56 | 41.60329 | -87.45740 | 4568 ft | 232 kts | 294° |
| 2026-05-01 11:57 | 41.60922 | -87.47760 | 4267 ft | 234 kts | 295° |
| 2026-05-01 11:57 | 41.61323 | -87.49087 | 4078 ft | 231 kts | 295° |
| 2026-05-01 11:57 | 41.62118 | -87.51731 | 4028 ft | 233 kts | 295° |
| 2026-05-01 11:57 | 41.62822 | -87.53667 | 4012 ft | 228 kts | 309° |
| 2026-05-01 11:58 | 41.63542 | -87.54668 | 4006 ft | 224 kts | 319° |
| 2026-05-01 11:58 | 41.64673 | -87.56136 | 4029 ft | 229 kts | 316° |
| 2026-05-01 11:58 | 41.67280 | -87.59648 | 3466 ft | 227 kts | 317° |
| 2026-05-01 11:59 | 41.68399 | -87.61142 | 3213 ft | 227 kts | 316° |
| 2026-05-01 11:59 | 41.69144 | -87.62160 | 3128 ft | 226 kts | 315° |
| 2026-05-01 11:59 | 41.70248 | -87.63680 | 2994 ft | 227 kts | 316° |
| 2026-05-01 12:00 | 41.72398 | -87.66691 | 2466 ft | 213 kts | 314° |
| 2026-05-01 12:00 | 41.73335 | -87.68084 | 2042 ft | 190 kts | 315° |
| 2026-05-01 12:00 | 41.75004 | -87.70480 | 1462 ft | 168 kts | 316° |
| 2026-05-01 12:01 | 41.75820 | -87.71574 | 1180 ft | 163 kts | 318° |
| 2026-05-01 12:01 | 41.76632 | -87.72617 | 980 ft | 158 kts | 314° |
| 2026-05-01 12:01 | 41.77382 | -87.73673 | 802 ft | 153 kts | 314° |
| 2026-05-01 12:01 | 41.78116 | -87.74669 | 635 ft | 143 kts | 314° |
| 2026-05-01 12:02 | 41.78732 | -87.75510 | 621 ft | 91 kts | 313° |
| 2026-05-01 12:02 | 41.78849 | -87.75676 | 619 ft | 8 kts | 316° |
| 2026-05-01 12:02 | 41.78950 | -87.75767 | 619 ft | 19 kts | 330° |
| 2026-05-01 12:02 | 41.79074 | -87.75823 | 617 ft | 18 kts | 358° |
| 2026-05-01 12:03 | 41.79128 | -87.75701 | 616 ft | 17 kts | 88° |
| 2026-05-01 12:03 | 41.79131 | -87.75537 | 616 ft | 18 kts | 89° |
| 2026-05-01 12:03 | 41.79133 | -87.75376 | 625 ft | 17 kts | 89° |
| 2026-05-01 12:03 | 41.79136 | -87.75220 | 620 ft | 16 kts | 89° |
| 2026-05-01 12:04 | 41.79139 | -87.75071 | 615 ft | 16 kts | 88° |
| 2026-05-01 12:04 | 41.79142 | -87.74927 | 614 ft | 15 kts | 89° |
| 2026-05-01 12:04 | 41.79144 | -87.74789 | 613 ft | 14 kts | 89° |
| 2026-05-01 12:04 | 41.79147 | -87.74659 | 613 ft | 14 kts | 89° |
| 2026-05-01 12:05 | 41.79148 | -87.74533 | 624 ft | 13 kts | 89° |
| 2026-05-01 12:05 | 41.79069 | -87.74338 | 621 ft | 12 kts | 164° |
| 2026-05-01 12:05 | 41.78984 | -87.74333 | 619 ft | 12 kts | 164° |
| 2026-05-01 12:06 | 41.78920 | -87.74287 | 627 ft | 10 kts | 132° |
| 2026-05-01 12:06 | 41.78908 | -87.74267 | 618 ft | 0 kts | 128° |